sensor_id;sensor_type;location;lat;lon;timestamp;temperature;humidity
64874;HTU21D;51367;45.204;38.576;2023-04-01T00:00:19;2.64;77.16
64874;HTU21D;51367;45.204;38.576;2023-04-01T00:02:47;2.60;77.18
64874;HTU21D;51367;45.204;38.576;2023-04-01T00:05:13;2.60;77.26
64874;HTU21D;51367;45.204;38.576;2023-04-01T00:07:39;2.57;77.34
64874;HTU21D;51367;45.204;38.576;2023-04-01T00:10:07;2.56;77.38
64874;HTU21D;51367;45.204;38.576;2023-04-01T00:12:34;2.53;77.40
64874;HTU21D;51367;45.204;38.576;2023-04-01T00:15:02;2.47;77.49
64874;HTU21D;51367;45.204;38.576;2023-04-01T00:17:28;2.45;77.49
64874;HTU21D;51367;45.204;38.576;2023-04-01T00:19:57;2.41;77.53
64874;HTU21D;51367;45.204;38.576;2023-04-01T00:22:24;2.40;77.57
64874;HTU21D;51367;45.204;38.576;2023-04-01T00:24:50;2.36;77.60
64874;HTU21D;51367;45.204;38.576;2023-04-01T00:27:16;2.34;77.66
64874;HTU21D;51367;45.204;38.576;2023-04-01T00:29:43;2.31;77.63
64874;HTU21D;51367;45.204;38.576;2023-04-01T00:32:09;2.28;77.70
64874;HTU21D;51367;45.204;38.576;2023-04-01T00:34:35;2.28;77.69
64874;HTU21D;51367;45.204;38.576;2023-04-01T00:37:02;2.27;77.66
64874;HTU21D;51367;45.204;38.576;2023-04-01T00:39:32;2.27;77.69
64874;HTU21D;51367;45.204;38.576;2023-04-01T00:41:59;2.27;77.65
64874;HTU21D;51367;45.204;38.576;2023-04-01T00:44:28;2.26;77.67
64874;HTU21D;51367;45.204;38.576;2023-04-01T00:46:55;2.25;77.66
64874;HTU21D;51367;45.204;38.576;2023-04-01T00:49:32;2.22;77.63
64874;HTU21D;51367;45.204;38.576;2023-04-01T00:52:01;2.20;77.60
64874;HTU21D;51367;45.204;38.576;2023-04-01T00:54:30;2.19;77.60
64874;HTU21D;51367;45.204;38.576;2023-04-01T00:57:00;2.16;77.68
64874;HTU21D;51367;45.204;38.576;2023-04-01T00:59:33;2.14;77.69
64874;HTU21D;51367;45.204;38.576;2023-04-01T01:02:01;2.10;77.77
64874;HTU21D;51367;45.204;38.576;2023-04-01T01:04:32;2.08;77.82
64874;HTU21D;51367;45.204;38.576;2023-04-01T01:07:17;2.07;77.82
64874;HTU21D;51367;45.204;38.576;2023-04-01T01:12:25;2.00;77.88
64874;HTU21D;51367;45.204;38.576;2023-04-01T01:28:59;1.84;77.83
64874;HTU21D;51367;45.204;38.576;2023-04-01T01:31:45;1.82;77.80
64874;HTU21D;51367;45.204;38.576;2023-04-01T01:36:53;1.82;77.84
64874;HTU21D;51367;45.204;38.576;2023-04-01T01:39:26;1.79;77.86
64874;HTU21D;51367;45.204;38.576;2023-04-01T01:41:57;1.80;77.88
64874;HTU21D;51367;45.204;38.576;2023-04-01T01:44:26;1.79;77.89
64874;HTU21D;51367;45.204;38.576;2023-04-01T01:46:55;1.76;77.99
64874;HTU21D;51367;45.204;38.576;2023-04-01T01:49:22;1.73;78.04
64874;HTU21D;51367;45.204;38.576;2023-04-01T01:51:49;1.69;78.08
64874;HTU21D;51367;45.204;38.576;2023-04-01T01:54:16;1.66;78.08
64874;HTU21D;51367;45.204;38.576;2023-04-01T01:56:46;1.62;78.09
64874;HTU21D;51367;45.204;38.576;2023-04-01T01:59:16;1.56;78.19
64874;HTU21D;51367;45.204;38.576;2023-04-01T02:01:48;1.53;78.40
64874;HTU21D;51367;45.204;38.576;2023-04-01T02:04:15;1.51;78.55
64874;HTU21D;51367;45.204;38.576;2023-04-01T02:06:51;1.48;78.65
64874;HTU21D;51367;45.204;38.576;2023-04-01T02:09:19;1.47;78.75
64874;HTU21D;51367;45.204;38.576;2023-04-01T02:11:49;1.46;78.85
64874;HTU21D;51367;45.204;38.576;2023-04-01T02:14:20;1.47;78.95
64874;HTU21D;51367;45.204;38.576;2023-04-01T02:19:29;1.49;79.07
64874;HTU21D;51367;45.204;38.576;2023-04-01T02:22:01;1.51;79.07
64874;HTU21D;51367;45.204;38.576;2023-04-01T02:24:30;1.52;79.08
64874;HTU21D;51367;45.204;38.576;2023-04-01T02:26:57;1.54;79.08
64874;HTU21D;51367;45.204;38.576;2023-04-01T02:29:24;1.54;79.07
64874;HTU21D;51367;45.204;38.576;2023-04-01T02:31:51;1.55;79.15
64874;HTU21D;51367;45.204;38.576;2023-04-01T02:34:20;1.56;79.17
64874;HTU21D;51367;45.204;38.576;2023-04-01T02:36:48;1.55;79.17
64874;HTU21D;51367;45.204;38.576;2023-04-01T02:39:15;1.55;79.12
64874;HTU21D;51367;45.204;38.576;2023-04-01T02:41:43;1.54;79.20
64874;HTU21D;51367;45.204;38.576;2023-04-01T02:44:10;1.52;79.18
64874;HTU21D;51367;45.204;38.576;2023-04-01T02:46:37;1.49;79.08
64874;HTU21D;51367;45.204;38.576;2023-04-01T02:49:04;1.45;79.01
64874;HTU21D;51367;45.204;38.576;2023-04-01T02:51:30;1.42;78.98
64874;HTU21D;51367;45.204;38.576;2023-04-01T02:53:56;1.37;78.98
64874;HTU21D;51367;45.204;38.576;2023-04-01T02:56:22;1.35;78.99
64874;HTU21D;51367;45.204;38.576;2023-04-01T02:58:49;1.32;79.04
64874;HTU21D;51367;45.204;38.576;2023-04-01T03:01:16;1.31;79.08
64874;HTU21D;51367;45.204;38.576;2023-04-01T03:03:42;1.29;79.20
64874;HTU21D;51367;45.204;38.576;2023-04-01T03:06:09;1.33;79.26
64874;HTU21D;51367;45.204;38.576;2023-04-01T03:08:36;1.34;79.30
64874;HTU21D;51367;45.204;38.576;2023-04-01T03:11:02;1.35;79.30
64874;HTU21D;51367;45.204;38.576;2023-04-01T03:13:30;1.37;79.27
64874;HTU21D;51367;45.204;38.576;2023-04-01T03:15:56;1.38;79.27
64874;HTU21D;51367;45.204;38.576;2023-04-01T03:18:22;1.40;79.42
64874;HTU21D;51367;45.204;38.576;2023-04-01T03:20:48;1.43;79.44
64874;HTU21D;51367;45.204;38.576;2023-04-01T03:23:14;1.48;79.62
64874;HTU21D;51367;45.204;38.576;2023-04-01T03:25:43;1.52;79.64
64874;HTU21D;51367;45.204;38.576;2023-04-01T03:28:09;1.57;79.65
64874;HTU21D;51367;45.204;38.576;2023-04-01T03:30:36;1.63;79.78
64874;HTU21D;51367;45.204;38.576;2023-04-01T03:33:02;1.69;79.85
64874;HTU21D;51367;45.204;38.576;2023-04-01T03:35:30;1.78;80.01
64874;HTU21D;51367;45.204;38.576;2023-04-01T03:37:57;1.85;79.97
64874;HTU21D;51367;45.204;38.576;2023-04-01T03:40:23;1.94;80.15
64874;HTU21D;51367;45.204;38.576;2023-04-01T03:42:49;2.05;80.32
64874;HTU21D;51367;45.204;38.576;2023-04-01T03:45:16;2.15;80.18
64874;HTU21D;51367;45.204;38.576;2023-04-01T03:47:42;2.25;79.97
64874;HTU21D;51367;45.204;38.576;2023-04-01T03:50:08;2.35;80.22
64874;HTU21D;51367;45.204;38.576;2023-04-01T03:52:35;2.45;80.44
64874;HTU21D;51367;45.204;38.576;2023-04-01T03:55:01;2.60;80.66
64874;HTU21D;51367;45.204;38.576;2023-04-01T03:57:28;2.71;80.30
64874;HTU21D;51367;45.204;38.576;2023-04-01T03:59:58;2.82;80.19
64874;HTU21D;51367;45.204;38.576;2023-04-01T04:02:25;2.95;80.22
64874;HTU21D;51367;45.204;38.576;2023-04-01T04:04:51;3.04;80.20
64874;HTU21D;51367;45.204;38.576;2023-04-01T04:07:18;3.18;80.08
64874;HTU21D;51367;45.204;38.576;2023-04-01T04:09:59;3.33;79.99
64874;HTU21D;51367;45.204;38.576;2023-04-01T04:12:25;3.49;79.95
64874;HTU21D;51367;45.204;38.576;2023-04-01T04:14:52;3.65;79.82
64874;HTU21D;51367;45.204;38.576;2023-04-01T04:17:18;3.87;79.66
64874;HTU21D;51367;45.204;38.576;2023-04-01T04:19:44;4.05;79.59
64874;HTU21D;51367;45.204;38.576;2023-04-01T04:22:12;4.34;79.72
64874;HTU21D;51367;45.204;38.576;2023-04-01T04:24:38;4.72;79.92
64874;HTU21D;51367;45.204;38.576;2023-04-01T04:27:10;5.23;79.14
64874;HTU21D;51367;45.204;38.576;2023-04-01T04:29:43;5.70;78.51
64874;HTU21D;51367;45.204;38.576;2023-04-01T04:32:09;6.15;77.78
64874;HTU21D;51367;45.204;38.576;2023-04-01T04:34:35;6.50;76.73
64874;HTU21D;51367;45.204;38.576;2023-04-01T04:37:02;6.78;76.12
64874;HTU21D;51367;45.204;38.576;2023-04-01T04:39:32;7.08;75.95
64874;HTU21D;51367;45.204;38.576;2023-04-01T04:41:58;7.40;75.13
64874;HTU21D;51367;45.204;38.576;2023-04-01T04:44:24;7.67;74.21
64874;HTU21D;51367;45.204;38.576;2023-04-01T04:46:50;7.92;73.77
64874;HTU21D;51367;45.204;38.576;2023-04-01T04:49:16;8.17;73.22
64874;HTU21D;51367;45.204;38.576;2023-04-01T04:51:42;8.43;72.62
64874;HTU21D;51367;45.204;38.576;2023-04-01T04:54:09;8.64;71.49
64874;HTU21D;51367;45.204;38.576;2023-04-01T04:56:52;8.78;70.22
64874;HTU21D;51367;45.204;38.576;2023-04-01T04:59:19;8.87;70.19
64874;HTU21D;51367;45.204;38.576;2023-04-01T05:01:54;8.95;70.09
64874;HTU21D;51367;45.204;38.576;2023-04-01T05:04:20;9.15;70.19
64874;HTU21D;51367;45.204;38.576;2023-04-01T05:06:46;9.31;68.80
64874;HTU21D;51367;45.204;38.576;2023-04-01T05:09:12;9.44;68.39
64874;HTU21D;51367;45.204;38.576;2023-04-01T05:11:39;9.49;68.14
64874;HTU21D;51367;45.204;38.576;2023-04-01T05:14:05;9.50;67.95
64874;HTU21D;51367;45.204;38.576;2023-04-01T05:16:32;9.54;67.84
64874;HTU21D;51367;45.204;38.576;2023-04-01T05:18:58;9.62;68.26
64874;HTU21D;51367;45.204;38.576;2023-04-01T05:21:24;9.68;68.35
64874;HTU21D;51367;45.204;38.576;2023-04-01T05:23:52;9.80;68.80
64874;HTU21D;51367;45.204;38.576;2023-04-01T05:26:18;10.00;69.41
64874;HTU21D;51367;45.204;38.576;2023-04-01T05:28:44;10.27;68.00
64874;HTU21D;51367;45.204;38.576;2023-04-01T05:31:10;10.54;67.65
64874;HTU21D;51367;45.204;38.576;2023-04-01T05:33:43;10.84;65.98
64874;HTU21D;51367;45.204;38.576;2023-04-01T05:36:14;10.98;65.44
64874;HTU21D;51367;45.204;38.576;2023-04-01T05:38:40;11.04;64.93
64874;HTU21D;51367;45.204;38.576;2023-04-01T05:41:10;11.02;64.87
64874;HTU21D;51367;45.204;38.576;2023-04-01T05:43:41;11.03;65.15
64874;HTU21D;51367;45.204;38.576;2023-04-01T05:46:27;11.17;65.84
64874;HTU21D;51367;45.204;38.576;2023-04-01T05:49:16;11.41;65.30
64874;HTU21D;51367;45.204;38.576;2023-04-01T05:51:43;11.60;64.77
64874;HTU21D;51367;45.204;38.576;2023-04-01T05:54:08;11.73;64.82
64874;HTU21D;51367;45.204;38.576;2023-04-01T05:56:35;11.93;64.92
64874;HTU21D;51367;45.204;38.576;2023-04-01T05:59:01;12.12;63.83
64874;HTU21D;51367;45.204;38.576;2023-04-01T06:01:27;12.31;63.57
64874;HTU21D;51367;45.204;38.576;2023-04-01T06:03:53;12.55;64.36
64874;HTU21D;51367;45.204;38.576;2023-04-01T06:06:30;12.84;63.04
64874;HTU21D;51367;45.204;38.576;2023-04-01T06:09:18;13.15;62.47
64874;HTU21D;51367;45.204;38.576;2023-04-01T06:29:28;15.62;58.77
64874;HTU21D;51367;45.204;38.576;2023-04-01T06:32:02;15.87;58.43
64874;HTU21D;51367;45.204;38.576;2023-04-01T06:34:40;16.12;56.97
64874;HTU21D;51367;45.204;38.576;2023-04-01T06:37:34;16.17;55.42
64874;HTU21D;51367;45.204;38.576;2023-04-01T06:43:09;16.16;56.78
64874;HTU21D;51367;45.204;38.576;2023-04-01T06:55:50;16.82;53.81
64874;HTU21D;51367;45.204;38.576;2023-04-01T06:58:52;16.79;55.18
64874;HTU21D;51367;45.204;38.576;2023-04-01T07:01:38;17.07;55.33
64874;HTU21D;51367;45.204;38.576;2023-04-01T07:07:00;17.26;53.84
64874;HTU21D;51367;45.204;38.576;2023-04-01T07:09:41;17.47;53.79
64874;HTU21D;51367;45.204;38.576;2023-04-01T07:15:28;17.94;52.04
64874;HTU21D;51367;45.204;38.576;2023-04-01T07:18:03;18.02;52.54
64874;HTU21D;51367;45.204;38.576;2023-04-01T07:20:35;18.26;53.58
64874;HTU21D;51367;45.204;38.576;2023-04-01T07:23:08;18.59;53.91
64874;HTU21D;51367;45.204;38.576;2023-04-01T07:26:06;18.94;52.20
64874;HTU21D;51367;45.204;38.576;2023-04-01T07:28:33;18.98;52.72
64874;HTU21D;51367;45.204;38.576;2023-04-01T07:34:12;18.99;50.72
64874;HTU21D;51367;45.204;38.576;2023-04-01T07:42:24;19.17;51.30
64874;HTU21D;51367;45.204;38.576;2023-04-01T07:48:23;19.56;51.59
64874;HTU21D;51367;45.204;38.576;2023-04-01T08:05:00;19.80;49.43
64874;HTU21D;51367;45.204;38.576;2023-04-01T08:22:17;20.72;48.12
64874;HTU21D;51367;45.204;38.576;2023-04-01T08:24:48;20.79;47.93
64874;HTU21D;51367;45.204;38.576;2023-04-01T08:27:36;20.80;47.00
64874;HTU21D;51367;45.204;38.576;2023-04-01T08:32:47;20.78;46.73
64874;HTU21D;51367;45.204;38.576;2023-04-01T08:37:55;20.35;45.17
64874;HTU21D;51367;45.204;38.576;2023-04-01T08:43:33;19.65;44.96
64874;HTU21D;51367;45.204;38.576;2023-04-01T08:46:17;19.41;45.70
64874;HTU21D;51367;45.204;38.576;2023-04-01T08:49:00;19.25;45.05
64874;HTU21D;51367;45.204;38.576;2023-04-01T08:51:53;18.80;44.45
64874;HTU21D;51367;45.204;38.576;2023-04-01T09:01:03;18.10;46.74
64874;HTU21D;51367;45.204;38.576;2023-04-01T09:26:13;17.19;46.14
64874;HTU21D;51367;45.204;38.576;2023-04-01T09:29:02;17.03;45.75
64874;HTU21D;51367;45.204;38.576;2023-04-01T09:32:02;16.73;45.24
64874;HTU21D;51367;45.204;38.576;2023-04-01T09:40:58;16.66;47.12
64874;HTU21D;51367;45.204;38.576;2023-04-01T09:46:39;16.93;47.78
64874;HTU21D;51367;45.204;38.576;2023-04-01T09:49:26;17.10;46.15
64874;HTU21D;51367;45.204;38.576;2023-04-01T09:52:24;17.07;47.54
64874;HTU21D;51367;45.204;38.576;2023-04-01T09:55:33;17.10;47.69
64874;HTU21D;51367;45.204;38.576;2023-04-01T09:58:32;17.03;46.78
64874;HTU21D;51367;45.204;38.576;2023-04-01T10:26:53;17.00;45.46
64874;HTU21D;51367;45.204;38.576;2023-04-01T10:32:34;17.01;46.53
64874;HTU21D;51367;45.204;38.576;2023-04-01T11:07:45;17.18;44.86
64874;HTU21D;51367;45.204;38.576;2023-04-01T11:21:37;17.28;45.72
64874;HTU21D;51367;45.204;38.576;2023-04-01T11:32:55;17.53;45.60
64874;HTU21D;51367;45.204;38.576;2023-04-01T11:44:13;17.59;45.41
64874;HTU21D;51367;45.204;38.576;2023-04-01T12:22:40;17.68;43.77
64874;HTU21D;51367;45.204;38.576;2023-04-01T12:34:05;17.82;44.71
64874;HTU21D;51367;45.204;38.576;2023-04-01T12:47:13;18.05;45.35
64874;HTU21D;51367;45.204;38.576;2023-04-01T12:52:13;18.10;45.39
64874;HTU21D;51367;45.204;38.576;2023-04-01T12:55:02;18.11;45.19
64874;HTU21D;51367;45.204;38.576;2023-04-01T13:20:44;18.13;45.22
64874;HTU21D;51367;45.204;38.576;2023-04-01T13:23:30;18.06;45.15
64874;HTU21D;51367;45.204;38.576;2023-04-01T13:28:28;17.94;44.90
64874;HTU21D;51367;45.204;38.576;2023-04-01T13:31:07;17.84;45.14
64874;HTU21D;51367;45.204;38.576;2023-04-01T13:34:27;17.76;44.25
64874;HTU21D;51367;45.204;38.576;2023-04-01T13:56:17;17.39;45.00
64874;HTU21D;51367;45.204;38.576;2023-04-01T13:59:01;17.34;45.13
64874;HTU21D;51367;45.204;38.576;2023-04-01T14:10:18;16.92;44.96
64874;HTU21D;51367;45.204;38.576;2023-04-01T14:32:06;16.20;44.90
64874;HTU21D;51367;45.204;38.576;2023-04-01T14:37:20;16.13;44.80
64874;HTU21D;51367;45.204;38.576;2023-04-01T14:48:30;15.77;44.89
64874;HTU21D;51367;45.204;38.576;2023-04-01T14:51:28;15.73;45.27
64874;HTU21D;51367;45.204;38.576;2023-04-01T14:54:04;15.68;45.51
64874;HTU21D;51367;45.204;38.576;2023-04-01T14:56:44;15.63;45.72
64874;HTU21D;51367;45.204;38.576;2023-04-01T14:59:29;15.57;45.84
64874;HTU21D;51367;45.204;38.576;2023-04-01T15:20:48;14.89;47.29
64874;HTU21D;51367;45.204;38.576;2023-04-01T15:28:53;14.44;48.08
64874;HTU21D;51367;45.204;38.576;2023-04-01T15:31:29;14.30;48.26
64874;HTU21D;51367;45.204;38.576;2023-04-01T15:36:47;14.04;48.54
64874;HTU21D;51367;45.204;38.576;2023-04-01T15:39:28;13.91;48.67
64874;HTU21D;51367;45.204;38.576;2023-04-01T15:42:19;13.76;48.75
64874;HTU21D;51367;45.204;38.576;2023-04-01T15:55:57;13.09;49.40
64874;HTU21D;51367;45.204;38.576;2023-04-01T15:58:29;12.93;49.64
64874;HTU21D;51367;45.204;38.576;2023-04-01T16:03:51;12.66;49.98
64874;HTU21D;51367;45.204;38.576;2023-04-01T16:06:23;12.51;50.17
64874;HTU21D;51367;45.204;38.576;2023-04-01T16:17:23;11.96;50.89
64874;HTU21D;51367;45.204;38.576;2023-04-01T16:22:19;11.71;51.19
64874;HTU21D;51367;45.204;38.576;2023-04-01T16:25:07;11.59;51.33
64874;HTU21D;51367;45.204;38.576;2023-04-01T16:33:35;11.20;51.75
64874;HTU21D;51367;45.204;38.576;2023-04-01T16:36:35;11.08;51.87
64874;HTU21D;51367;45.204;38.576;2023-04-01T16:45:15;10.74;52.19
64874;HTU21D;51367;45.204;38.576;2023-04-01T16:47:49;10.65;52.28
64874;HTU21D;51367;45.204;38.576;2023-04-01T16:50:25;10.56;52.37
64874;HTU21D;51367;45.204;38.576;2023-04-01T16:56:04;10.41;52.53
64874;HTU21D;51367;45.204;38.576;2023-04-01T16:59:04;10.33;52.62
64874;HTU21D;51367;45.204;38.576;2023-04-01T17:04:47;10.20;52.70
64874;HTU21D;51367;45.204;38.576;2023-04-01T17:07:46;10.11;52.78
64874;HTU21D;51367;45.204;38.576;2023-04-01T17:11:15;10.05;52.82
64874;HTU21D;51367;45.204;38.576;2023-04-01T17:16:42;9.88;52.95
64874;HTU21D;51367;45.204;38.576;2023-04-01T17:25:02;9.63;53.23
64874;HTU21D;51367;45.204;38.576;2023-04-01T17:30:35;9.46;53.42
64874;HTU21D;51367;45.204;38.576;2023-04-01T17:33:22;9.38;53.54
64874;HTU21D;51367;45.204;38.576;2023-04-01T17:52:44;8.92;53.96
64874;HTU21D;51367;45.204;38.576;2023-04-01T17:55:25;8.85;54.02
64874;HTU21D;51367;45.204;38.576;2023-04-01T17:58:07;8.77;54.10
64874;HTU21D;51367;45.204;38.576;2023-04-01T18:08:58;8.45;54.36
64874;HTU21D;51367;45.204;38.576;2023-04-01T18:20:31;8.18;54.60
64874;HTU21D;51367;45.204;38.576;2023-04-01T18:23:24;8.12;54.67
64874;HTU21D;51367;45.204;38.576;2023-04-01T18:26:02;8.03;54.72
64874;HTU21D;51367;45.204;38.576;2023-04-01T18:28:59;7.98;54.84
64874;HTU21D;51367;45.204;38.576;2023-04-01T18:31:47;7.94;54.87
64874;HTU21D;51367;45.204;38.576;2023-04-01T18:34:26;7.91;54.90
64874;HTU21D;51367;45.204;38.576;2023-04-01T18:37:19;7.90;54.94
64874;HTU21D;51367;45.204;38.576;2023-04-01T18:39:56;7.86;54.94
64874;HTU21D;51367;45.204;38.576;2023-04-01T18:45:22;7.78;55.07
64874;HTU21D;51367;45.204;38.576;2023-04-01T18:53:34;7.57;55.39
64874;HTU21D;51367;45.204;38.576;2023-04-01T18:56:11;7.49;55.47
64874;HTU21D;51367;45.204;38.576;2023-04-01T19:07:40;7.23;56.39
64874;HTU21D;51367;45.204;38.576;2023-04-01T19:10:54;7.18;56.40
64874;HTU21D;51367;45.204;38.576;2023-04-01T19:21:21;7.01;56.62
64874;HTU21D;51367;45.204;38.576;2023-04-01T19:26:33;6.95;56.68
64874;HTU21D;51367;45.204;38.576;2023-04-01T19:37:40;6.73;56.87
64874;HTU21D;51367;45.204;38.576;2023-04-01T19:42:46;6.61;57.11
64874;HTU21D;51367;45.204;38.576;2023-04-01T19:56:18;6.41;57.63
64874;HTU21D;51367;45.204;38.576;2023-04-01T20:04:50;6.27;57.67
64874;HTU21D;51367;45.204;38.576;2023-04-01T20:07:40;6.21;57.71
64874;HTU21D;51367;45.204;38.576;2023-04-01T20:10:10;6.12;57.73
64874;HTU21D;51367;45.204;38.576;2023-04-01T20:15:33;5.99;57.98
64874;HTU21D;51367;45.204;38.576;2023-04-01T20:18:05;5.93;58.08
64874;HTU21D;51367;45.204;38.576;2023-04-01T20:20:39;5.87;58.18
64874;HTU21D;51367;45.204;38.576;2023-04-01T20:25:57;5.77;58.46
64874;HTU21D;51367;45.204;38.576;2023-04-01T20:28:36;5.75;58.58
64874;HTU21D;51367;45.204;38.576;2023-04-01T20:36:58;5.64;58.81
64874;HTU21D;51367;45.204;38.576;2023-04-01T20:46:04;5.60;58.87
64874;HTU21D;51367;45.204;38.576;2023-04-01T20:54:49;5.54;58.90
64874;HTU21D;51367;45.204;38.576;2023-04-01T21:27:51;5.33;59.54
64874;HTU21D;51367;45.204;38.576;2023-04-01T21:41:30;5.47;59.67
64874;HTU21D;51367;45.204;38.576;2023-04-01T22:02:54;5.49;60.00
64874;HTU21D;51367;45.204;38.576;2023-04-01T22:08:37;5.49;60.02
64874;HTU21D;51367;45.204;38.576;2023-04-01T22:11:26;5.49;59.94
64874;HTU21D;51367;45.204;38.576;2023-04-01T22:14:33;5.48;59.87
64874;HTU21D;51367;45.204;38.576;2023-04-01T22:25:02;5.35;59.86
64874;HTU21D;51367;45.204;38.576;2023-04-01T22:27:38;5.32;59.90
64874;HTU21D;51367;45.204;38.576;2023-04-01T22:30:13;5.30;59.93
64874;HTU21D;51367;45.204;38.576;2023-04-01T22:32:50;5.26;59.97
64874;HTU21D;51367;45.204;38.576;2023-04-01T22:35:49;5.28;59.98
64874;HTU21D;51367;45.204;38.576;2023-04-01T22:43:40;5.36;59.77
64874;HTU21D;51367;45.204;38.576;2023-04-01T22:48:44;5.39;59.68
64874;HTU21D;51367;45.204;38.576;2023-04-01T22:51:40;5.38;59.65
64874;HTU21D;51367;45.204;38.576;2023-04-01T22:59:26;5.32;59.58
64874;HTU21D;51367;45.204;38.576;2023-04-01T23:01:58;5.27;59.62
64874;HTU21D;51367;45.204;38.576;2023-04-01T23:04:39;5.25;59.63
64874;HTU21D;51367;45.204;38.576;2023-04-01T23:07:32;5.19;59.67
64874;HTU21D;51367;45.204;38.576;2023-04-01T23:10:05;5.17;59.72
64874;HTU21D;51367;45.204;38.576;2023-04-01T23:12:38;5.15;59.75
64874;HTU21D;51367;45.204;38.576;2023-04-01T23:15:12;5.15;59.76
64874;HTU21D;51367;45.204;38.576;2023-04-01T23:21:03;5.13;59.79
64874;HTU21D;51367;45.204;38.576;2023-04-01T23:26:13;5.17;59.73
64874;HTU21D;51367;45.204;38.576;2023-04-01T23:28:44;5.19;59.69
64874;HTU21D;51367;45.204;38.576;2023-04-01T23:36:30;5.28;59.44
64874;HTU21D;51367;45.204;38.576;2023-04-01T23:39:05;5.31;59.38
64874;HTU21D;51367;45.204;38.576;2023-04-01T23:41:33;5.35;59.35
64874;HTU21D;51367;45.204;38.576;2023-04-01T23:44:02;5.39;59.25
64874;HTU21D;51367;45.204;38.576;2023-04-01T23:46:30;5.43;59.21
64874;HTU21D;51367;45.204;38.576;2023-04-01T23:48:58;5.45;59.18
64874;HTU21D;51367;45.204;38.576;2023-04-01T23:51:29;5.48;59.09
64874;HTU21D;51367;45.204;38.576;2023-04-01T23:54:04;5.50;59.03
64874;HTU21D;51367;45.204;38.576;2023-04-01T23:57:04;5.49;59.03
64874;HTU21D;51367;45.204;38.576;2023-04-01T23:59:36;5.46;59.03
